createdAt,value
2023-09-06T00:00:30.977Z,0.82
2023-09-06T00:03:37.960Z,0.82
2023-09-06T00:06:41.805Z,0.82
2023-09-06T00:09:45.718Z,0.80
2023-09-06T00:12:49.622Z,0.75
2023-09-06T00:15:53.490Z,0.80
2023-09-06T00:19:01.154Z,0.63
2023-09-06T00:22:05.605Z,0.73
2023-09-06T00:25:10.367Z,0.80
2023-09-06T00:28:14.720Z,0.88
2023-09-06T00:31:19.341Z,0.70
2023-09-06T00:34:25.736Z,0.80
2023-09-06T00:37:36.610Z,0.73
2023-09-06T00:40:41.810Z,0.82
2023-09-06T00:43:45.637Z,0.70
2023-09-06T00:46:49.842Z,0.70
2023-09-06T00:49:55.039Z,0.75
2023-09-06T00:52:58.974Z,0.60
2023-09-06T00:56:03.957Z,0.75
2023-09-06T00:59:11.870Z,0.68
2023-09-06T01:02:15.699Z,0.60
2023-09-06T01:05:21.448Z,0.68
2023-09-06T01:08:29.926Z,0.60
2023-09-06T01:11:40.080Z,0.70
2023-09-06T01:14:43.796Z,0.80
2023-09-06T01:17:48.619Z,0.90
2023-09-06T01:20:55.325Z,0.90
2023-09-06T01:24:03.657Z,0.75
2023-09-06T01:27:08.021Z,0.75
2023-09-06T01:30:12.966Z,0.63
2023-09-06T01:33:17.638Z,0.60
2023-09-06T01:36:21.728Z,0.70
2023-09-06T01:39:27.366Z,0.90
2023-09-06T01:42:31.066Z,0.60
2023-09-06T01:45:36.708Z,0.80
2023-09-06T01:48:40.799Z,0.82
2023-09-06T01:51:44.725Z,0.75
2023-09-06T01:54:49.819Z,0.70
2023-09-06T01:57:53.684Z,0.80
2023-09-06T02:00:58.866Z,0.55
2023-09-06T02:04:06.322Z,0.90
2023-09-06T02:07:10.121Z,0.90
2023-09-06T02:10:15.327Z,0.80
2023-09-06T02:13:19.213Z,0.88
2023-09-06T02:16:23.883Z,0.70
2023-09-06T02:19:27.707Z,0.73
2023-09-06T02:22:31.372Z,1.00
2023-09-06T02:25:36.536Z,0.60
2023-09-06T02:28:40.259Z,0.50
2023-09-06T02:31:46.089Z,0.80
2023-09-06T02:34:49.935Z,0.90
2023-09-06T02:37:53.721Z,1.20
2023-09-06T02:40:58.911Z,2.17
2023-09-06T02:44:02.638Z,1.50
2023-09-06T02:47:10.799Z,1.63
2023-09-06T02:50:14.605Z,1.60
2023-09-06T02:53:21.503Z,1.38
2023-09-06T02:56:27.326Z,1.92
2023-09-06T02:59:31.144Z,1.27
2023-09-06T03:02:35.237Z,1.88
2023-09-06T03:05:43.098Z,1.60
2023-09-06T03:08:52.412Z,1.67
2023-09-06T03:11:58.005Z,3.58
2023-09-06T03:15:01.771Z,2.72
2023-09-06T03:18:06.843Z,2.80
2023-09-06T03:21:10.740Z,3.65
2023-09-06T03:24:14.658Z,2.80
2023-09-06T03:27:21.686Z,2.50
2023-09-06T03:30:25.872Z,1.00
2023-09-06T03:33:30.805Z,0.90
2023-09-06T03:36:36.494Z,1.20
2023-09-06T03:39:42.668Z,0.90
2023-09-06T03:42:48.921Z,0.85
2023-09-06T03:45:53.338Z,0.77
2023-09-06T03:48:57.354Z,0.93
2023-09-06T03:52:01.330Z,0.80
2023-09-06T03:55:06.530Z,0.80
2023-09-06T03:58:12.272Z,0.90
2023-09-06T04:01:17.400Z,1.00
2023-09-06T04:04:23.881Z,1.08
2023-09-06T04:07:27.721Z,1.10
2023-09-06T04:10:37.571Z,1.10
2023-09-06T04:13:44.794Z,1.20
2023-09-06T04:16:51.240Z,1.20
2023-09-06T04:19:57.602Z,1.23
2023-09-06T04:23:01.634Z,1.10
2023-09-06T04:26:06.624Z,0.95
2023-09-06T04:29:12.289Z,0.98
2023-09-06T04:32:18.644Z,1.27
2023-09-06T04:35:23.536Z,1.05
2023-09-06T04:38:27.880Z,0.90
2023-09-06T04:41:37.962Z,1.10
2023-09-06T04:44:46.021Z,1.20
2023-09-06T04:47:50.515Z,1.00
2023-09-06T04:50:56.622Z,1.30
2023-09-06T04:54:01.548Z,1.10
2023-09-06T04:57:12.250Z,1.40
2023-09-06T05:00:19.157Z,1.20
2023-09-06T05:03:23.694Z,1.00
2023-09-06T05:06:31.544Z,1.23
2023-09-06T05:09:35.847Z,1.10
2023-09-06T05:12:41.155Z,1.00
2023-09-06T05:15:47.543Z,1.25
2023-09-06T05:18:51.457Z,0.90
2023-09-06T05:21:59.867Z,1.05
2023-09-06T05:25:03.773Z,0.95
2023-09-06T05:28:09.546Z,0.82
2023-09-06T05:31:16.281Z,1.40
2023-09-06T05:34:20.558Z,0.90
2023-09-06T05:37:25.913Z,1.27
2023-09-06T05:40:31.905Z,1.38
2023-09-06T05:43:35.700Z,1.05
2023-09-06T05:46:42.116Z,1.13
2023-09-06T05:49:52.475Z,1.15
2023-09-06T05:52:56.678Z,1.00
2023-09-06T05:56:01.211Z,1.25
2023-09-06T05:59:06.876Z,1.00
2023-09-06T06:02:12.255Z,1.02
2023-09-06T06:05:16.476Z,1.20
2023-09-06T06:08:20.403Z,1.15
2023-09-06T06:11:26.996Z,0.90
2023-09-06T06:14:32.068Z,1.10
2023-09-06T06:17:37.622Z,1.20
2023-09-06T06:20:44.943Z,1.02
2023-09-06T06:23:49.237Z,1.00
2023-09-06T06:26:53.030Z,0.98
2023-09-06T06:29:56.834Z,1.00
2023-09-06T06:33:02.202Z,0.95
2023-09-06T06:36:06.254Z,0.90
2023-09-06T06:39:11.600Z,1.00
2023-09-06T06:42:15.383Z,1.13
2023-09-06T06:45:23.991Z,1.10
2023-09-06T06:48:29.440Z,0.90
2023-09-06T06:51:36.925Z,0.93
2023-09-06T06:54:43.074Z,0.88
2023-09-06T06:57:48.837Z,0.85
2023-09-06T07:00:52.637Z,0.88
2023-09-06T07:03:58.046Z,0.95
2023-09-06T07:07:01.932Z,1.20
2023-09-06T07:10:07.564Z,1.10
2023-09-06T07:13:11.326Z,0.90
2023-09-06T07:16:17.378Z,0.88
2023-09-06T07:19:22.843Z,1.00
2023-09-06T07:22:26.846Z,1.02
2023-09-06T07:25:30.547Z,1.00
2023-09-06T07:28:40.331Z,1.05
2023-09-06T07:31:44.140Z,0.98
2023-09-06T07:34:49.339Z,0.88
2023-09-06T07:37:53.101Z,1.40
2023-09-06T07:41:00.530Z,0.90
2023-09-06T07:44:04.453Z,0.90
2023-09-06T07:47:08.488Z,1.10
2023-09-06T07:50:13.990Z,0.85
2023-09-06T07:53:17.853Z,1.20
2023-09-06T07:56:21.704Z,0.90
2023-09-06T07:59:25.651Z,1.08
2023-09-06T08:02:29.482Z,0.88
2023-09-06T08:05:36.439Z,1.17
2023-09-06T08:08:40.326Z,1.33
2023-09-06T08:11:44.141Z,1.23
2023-09-06T08:14:48.241Z,1.08
2023-09-06T08:17:52.643Z,1.02
2023-09-06T08:20:58.075Z,0.93
2023-09-06T08:24:03.628Z,1.02
2023-09-06T08:27:07.580Z,1.10
2023-09-06T08:30:13.082Z,0.95
2023-09-06T08:33:18.286Z,0.82
2023-09-06T08:36:23.658Z,0.80
2023-09-06T08:39:27.516Z,0.90
2023-09-06T08:42:34.459Z,1.05
2023-09-06T08:45:39.382Z,1.52
2023-09-06T08:48:44.280Z,1.10
2023-09-06T08:51:50.133Z,1.10
2023-09-06T08:56:29.808Z,1.08
2023-09-06T08:59:36.046Z,1.40
2023-09-06T09:02:41.743Z,1.20
2023-09-06T09:05:45.631Z,1.02
2023-09-06T09:08:49.602Z,1.05
2023-09-06T09:11:55.361Z,1.08
2023-09-06T09:15:10.257Z,1.00
2023-09-06T09:18:22.002Z,1.02
2023-09-06T09:21:25.759Z,1.00
2023-09-06T09:24:31.177Z,1.00
2023-09-06T09:27:38.178Z,1.00
2023-09-06T09:30:42.312Z,1.00
2023-09-06T09:33:47.103Z,1.02
2023-09-06T09:36:52.344Z,1.00
2023-09-06T09:39:56.266Z,0.93
2023-09-06T09:43:03.487Z,0.85
2023-09-06T09:46:07.869Z,1.02
2023-09-06T09:49:12.693Z,1.48
2023-09-06T09:52:18.383Z,1.13
2023-09-06T09:55:25.599Z,1.20
2023-09-06T09:58:33.168Z,1.13
2023-09-06T10:01:36.944Z,1.00
2023-09-06T10:04:43.883Z,1.30
2023-09-06T10:07:49.934Z,1.20
2023-09-06T10:10:54.239Z,1.02
2023-09-06T10:14:01.222Z,1.23
2023-09-06T10:17:06.194Z,1.25
2023-09-06T10:20:14.120Z,0.90
2023-09-06T10:23:20.134Z,0.90
2023-09-06T10:26:28.204Z,1.00
2023-09-06T10:29:33.759Z,1.17
2023-09-06T10:32:44.431Z,1.27
2023-09-06T10:35:48.362Z,1.33
2023-09-06T10:39:15.896Z,0.98
2023-09-06T10:42:22.876Z,1.30
2023-09-06T10:45:28.118Z,0.80
2023-09-06T10:48:32.062Z,1.38
2023-09-06T10:51:35.888Z,0.82
2023-09-06T10:54:41.920Z,0.80
2023-09-06T10:57:54.051Z,1.15
2023-09-06T11:01:17.578Z,1.00
2023-09-06T11:04:27.650Z,0.90
2023-09-06T11:07:48.717Z,1.10
2023-09-06T11:10:55.155Z,0.98
2023-09-06T11:14:07.969Z,0.90
2023-09-06T11:17:25.739Z,1.00
2023-09-06T11:20:29.818Z,1.05
2023-09-06T11:23:45.529Z,1.20
2023-09-06T11:26:49.302Z,1.00
2023-09-06T11:30:00.441Z,0.80
2023-09-06T11:33:09.149Z,0.90
2023-09-06T11:36:14.683Z,1.00
2023-09-06T11:39:20.600Z,0.95
2023-09-06T11:42:26.048Z,0.82
2023-09-06T11:45:32.585Z,1.10
2023-09-06T11:48:38.684Z,1.00
2023-09-06T11:51:43.118Z,1.05
2023-09-06T11:54:51.213Z,0.88
2023-09-06T11:57:58.734Z,1.17
2023-09-06T12:01:06.721Z,1.00
2023-09-06T12:04:17.098Z,1.10
2023-09-06T12:07:24.719Z,1.10
2023-09-06T12:10:30.071Z,1.30
2023-09-06T12:13:36.337Z,0.88
2023-09-06T12:16:40.876Z,1.20
2023-09-06T12:19:46.465Z,0.90
2023-09-06T12:22:50.368Z,0.68
2023-09-06T12:25:54.090Z,0.93
2023-09-06T12:28:58.688Z,0.70
2023-09-06T12:32:02.424Z,0.95
2023-09-06T12:35:09.169Z,0.80
2023-09-06T12:38:12.866Z,0.88
2023-09-06T12:41:16.714Z,0.77
2023-09-06T12:44:23.021Z,0.75
2023-09-06T12:47:27.007Z,0.80
2023-09-06T12:50:32.256Z,1.00
2023-09-06T12:53:36.212Z,0.90
2023-09-06T12:56:40.261Z,1.00
2023-09-06T12:59:44.084Z,1.10
2023-09-06T13:02:48.057Z,0.82
2023-09-06T13:05:53.378Z,0.80
2023-09-06T13:08:57.608Z,1.10
2023-09-06T13:12:02.039Z,0.93
2023-09-06T13:15:06.714Z,0.85
2023-09-06T13:18:10.643Z,0.90
2023-09-06T13:21:16.110Z,1.02
2023-09-06T13:24:20.696Z,1.13
2023-09-06T13:27:24.420Z,0.98
2023-09-06T13:30:28.238Z,1.00
2023-09-06T13:33:32.804Z,1.10
2023-09-06T13:36:40.046Z,0.70
2023-09-06T13:39:44.167Z,1.17
2023-09-06T13:42:48.031Z,1.08
2023-09-06T13:45:51.906Z,0.95
2023-09-06T13:48:55.732Z,0.80
2023-09-06T13:52:00.956Z,1.10
2023-09-06T13:55:06.599Z,1.10
2023-09-06T13:58:11.788Z,0.90
2023-09-06T14:01:16.745Z,1.00
2023-09-06T14:04:21.023Z,1.27
2023-09-06T14:07:26.296Z,0.90
2023-09-06T14:10:29.965Z,1.35
2023-09-06T14:13:34.034Z,1.15
2023-09-06T14:16:37.882Z,0.98
2023-09-06T14:19:41.661Z,1.00
2023-09-06T14:22:46.831Z,1.15
2023-09-06T14:25:51.540Z,1.00
2023-09-06T14:28:56.785Z,1.05
2023-09-06T14:32:00.716Z,0.95
2023-09-06T14:35:06.180Z,1.17
2023-09-06T14:38:11.347Z,1.42
2023-09-06T14:41:15.516Z,1.17
2023-09-06T14:44:19.733Z,1.30
2023-09-06T14:47:23.741Z,1.15
2023-09-06T14:50:27.784Z,1.15
2023-09-06T14:53:34.229Z,1.05
2023-09-06T14:56:38.731Z,1.50
2023-09-06T14:59:43.224Z,1.15
2023-09-06T15:02:47.688Z,1.17
2023-09-06T15:05:52.110Z,1.20
2023-09-06T15:08:57.725Z,1.00
2023-09-06T15:12:03.464Z,1.15
2023-09-06T15:15:08.734Z,1.20
2023-09-06T15:18:12.989Z,1.10
2023-09-06T15:21:17.012Z,0.93
2023-09-06T15:24:22.167Z,0.85
2023-09-06T15:27:26.021Z,1.10
2023-09-06T15:30:29.864Z,0.80
2023-09-06T15:33:34.895Z,1.30
2023-09-06T15:36:38.661Z,1.23
2023-09-06T15:39:44.565Z,1.17
2023-09-06T15:42:48.274Z,1.00
2023-09-06T15:45:52.410Z,1.30
2023-09-06T15:48:56.258Z,1.38
2023-09-06T15:51:59.991Z,1.30
2023-09-06T15:55:07.188Z,1.15
2023-09-06T15:58:11.117Z,1.15
2023-09-06T16:01:14.897Z,0.90
2023-09-06T16:04:18.932Z,1.40
2023-09-06T16:07:24.949Z,1.20
2023-09-06T16:10:30.191Z,1.35
2023-09-06T16:13:34.047Z,1.30
2023-09-06T16:16:38.159Z,1.42
2023-09-06T16:19:41.940Z,1.85
2023-09-06T16:22:45.788Z,1.80
2023-09-06T16:25:50.976Z,1.70
2023-09-06T16:28:54.803Z,1.30
2023-09-06T16:31:59.075Z,1.52
2023-09-06T16:35:08.879Z,1.30
2023-09-06T16:38:13.442Z,1.30
2023-09-06T16:41:18.538Z,1.60
2023-09-06T16:44:23.655Z,1.50
2023-09-06T16:47:27.532Z,1.75
2023-09-06T16:50:31.317Z,2.15
2023-09-06T16:53:35.136Z,2.58
2023-09-06T16:56:40.266Z,2.55
2023-09-06T16:59:44.952Z,2.85
2023-09-06T17:02:48.890Z,2.55
2023-09-06T17:05:52.712Z,1.98
2023-09-06T17:08:56.608Z,1.85
2023-09-06T17:12:01.818Z,1.98
2023-09-06T17:15:15.042Z,2.55
2023-09-06T17:18:18.793Z,2.30
2023-09-06T17:21:23.695Z,2.45
2023-09-06T17:24:27.719Z,2.80
2023-09-06T17:27:33.465Z,2.50
2023-09-06T17:30:39.235Z,2.38
2023-09-06T17:33:42.959Z,2.70
2023-09-06T17:36:47.047Z,2.45
2023-09-06T17:39:50.807Z,3.05
2023-09-06T17:42:55.931Z,2.85
2023-09-06T17:46:00.769Z,2.63
2023-09-06T17:49:10.328Z,2.83
2023-09-06T17:52:17.448Z,2.72
2023-09-06T17:55:21.982Z,3.03
2023-09-06T17:58:27.166Z,2.78
2023-09-06T18:01:31.156Z,2.42
2023-09-06T18:04:35.345Z,2.80
2023-09-06T18:07:39.230Z,3.17
2023-09-06T18:10:42.895Z,3.03
2023-09-06T18:13:49.027Z,2.60
2023-09-06T18:16:56.588Z,2.30
2023-09-06T18:20:00.485Z,2.70
2023-09-06T18:23:04.729Z,5.30
2023-09-06T18:26:09.653Z,4.32
2023-09-06T18:29:14.841Z,4.18
2023-09-06T18:32:18.646Z,4.78
2023-09-06T18:35:22.631Z,3.80
2023-09-06T18:38:28.151Z,3.97
2023-09-06T18:41:32.513Z,4.25
2023-09-06T18:44:37.667Z,2.53
2023-09-06T18:47:43.320Z,2.50
2023-09-06T18:50:47.956Z,1.88
2023-09-06T18:53:53.245Z,2.15
2023-09-06T18:56:57.056Z,2.10
2023-09-06T19:00:02.146Z,2.50
2023-09-06T19:03:07.225Z,2.22
2023-09-06T19:06:11.224Z,2.17
2023-09-06T19:09:16.919Z,2.00
2023-09-06T19:12:20.871Z,2.30
2023-09-06T19:15:26.088Z,2.92
2023-09-06T19:18:30.261Z,2.70
2023-09-06T19:21:34.749Z,2.92
2023-09-06T19:24:38.473Z,2.67
2023-09-06T19:27:42.750Z,2.53
2023-09-06T19:30:49.205Z,2.42
2023-09-06T19:33:53.263Z,2.13
2023-09-06T19:36:57.097Z,2.35
2023-09-06T19:40:02.326Z,1.65
2023-09-06T19:43:06.424Z,2.28
2023-09-06T19:46:11.870Z,2.10
2023-09-06T19:49:15.800Z,1.90
2023-09-06T19:52:19.626Z,2.03
2023-09-06T19:55:23.375Z,2.28
2023-09-06T19:58:27.416Z,2.33
2023-09-06T20:01:32.834Z,1.77
2023-09-06T20:04:37.275Z,1.90
2023-09-06T20:07:41.201Z,2.00
2023-09-06T20:10:48.257Z,2.03
2023-09-06T20:13:52.918Z,2.17
2023-09-06T20:16:58.428Z,2.88
2023-09-06T20:20:02.109Z,3.50
2023-09-06T20:23:06.398Z,6.13
2023-09-06T20:26:10.206Z,6.68
2023-09-06T20:29:13.973Z,8.82
2023-09-06T20:32:19.056Z,5.43
2023-09-06T20:35:22.973Z,4.40
2023-09-06T20:38:26.857Z,3.30
2023-09-06T20:41:30.638Z,3.28
2023-09-06T20:44:34.610Z,2.53
2023-09-06T20:47:39.815Z,2.13
2023-09-06T20:50:43.730Z,2.45
2023-09-06T20:53:47.939Z,2.45
2023-09-06T20:56:52.298Z,2.40
2023-09-06T20:59:56.171Z,2.17
2023-09-06T21:03:01.556Z,2.00
2023-09-06T21:06:05.438Z,2.10
2023-09-06T21:09:11.779Z,2.20
2023-09-06T21:12:15.789Z,3.00
2023-09-06T21:15:19.910Z,3.10
2023-09-06T21:18:25.940Z,2.92
2023-09-06T21:21:29.911Z,2.90
2023-09-06T21:24:33.919Z,2.70
2023-09-06T21:27:39.916Z,2.95
2023-09-06T21:30:46.883Z,2.22
2023-09-06T21:33:52.265Z,2.10
2023-09-06T21:36:56.390Z,2.28
2023-09-06T21:40:00.715Z,2.00
2023-09-06T21:43:17.050Z,2.10
2023-09-06T21:46:22.251Z,2.25
2023-09-06T21:49:27.721Z,2.47
2023-09-06T21:52:31.492Z,1.80
2023-09-06T21:55:35.480Z,1.70
2023-09-06T21:58:39.386Z,1.88
2023-09-06T22:01:55.488Z,1.80
2023-09-06T22:05:19.434Z,1.83
2023-09-06T22:08:41.584Z,1.60
2023-09-06T22:12:03.717Z,2.08
2023-09-06T22:15:11.548Z,1.88
2023-09-06T22:18:15.383Z,2.35
2023-09-06T22:21:20.531Z,2.63
2023-09-06T22:24:24.319Z,1.50
2023-09-06T22:27:28.491Z,1.65
2023-09-06T22:30:33.745Z,1.50
2023-09-06T22:33:37.515Z,1.75
2023-09-06T22:36:42.620Z,2.10
2023-09-06T22:39:46.405Z,1.75
2023-09-06T22:42:50.212Z,2.25
2023-09-06T22:45:54.043Z,1.58
2023-09-06T22:48:58.125Z,1.60
2023-09-06T22:52:04.113Z,1.70
2023-09-06T22:55:11.107Z,2.08
2023-09-06T22:58:15.384Z,1.90
2023-09-06T23:01:19.250Z,2.00
2023-09-06T23:04:23.182Z,2.40
2023-09-06T23:07:29.317Z,2.22
2023-09-06T23:10:34.541Z,2.63
2023-09-06T23:13:38.340Z,2.40
2023-09-06T23:16:42.888Z,2.10
2023-09-06T23:19:49.737Z,2.08
2023-09-06T23:22:58.844Z,1.95
2023-09-06T23:26:07.485Z,2.08
2023-09-06T23:29:13.592Z,2.15
2023-09-06T23:32:20.782Z,1.88
2023-09-06T23:35:26.228Z,2.08
2023-09-06T23:38:31.900Z,2.15
2023-09-06T23:41:37.766Z,1.73
2023-09-06T23:44:45.913Z,2.08
2023-09-06T23:47:53.866Z,2.10
2023-09-06T23:50:58.339Z,2.08
2023-09-06T23:54:04.301Z,2.20
2023-09-06T23:57:08.105Z,2.28
